In Rescue
 
Open Full Screen Window  High Contrast Mode
Wind Gusting 00 knots
04
June 20, 2021 10:49 AM EDT
Weather Information
Wind Direction
  240 °
Wind Speed
  04 kt (5 mph)
Wind Gust
  00 kt (0 mph)
Altimeter
29.82 in
Visibility
10 SM
Temperature
25° C
77° F
Dewpoint
20° C
68° F
Humidity
74%
1hr Rain Fall
00.00 in.
24hr Rain Fall
00.01 in.
Sky Condition
Broken @ 1,200 ft
MVFR

METAR KPOV 201449Z AUTO 24004KT 10SM BKN012 25/20 A2982 RMK AO2 T02490204 PWINO

FAA Disclaimer: The data displayed is for advisory purposes only and is not to be used for flight planning or operations.